Time;durP1;ratioP1;P1;durP2;ratioP2;P2;SDS_P1;SDS_P2;PMS_P1;PMS_P2;Temp;Humidity;BMP_temperature;BMP_pressure;BME280_temperature;BME280_humidity;BME280_pressure;Samples;Min_cycle;Max_cycle;Signal;HPM_P1;HPM_P2
2023/08/10 00:00:32;;;;;;;1.70;1.60;;;22.50;47.90;;;;;;5024582;28;20238;-76
2023/08/10 00:02:57;;;;;;;1.57;1.47;;;22.50;47.90;;;;;;5042391;28;20252;-76
2023/08/10 00:05:24;;;;;;;1.83;1.73;;;22.50;47.80;;;;;;5039203;28;20261;-76
2023/08/10 00:07:49;;;;;;;1.50;1.40;;;22.50;47.80;;;;;;5038501;28;20322;-76
2023/08/10 00:10:15;;;;;;;1.53;1.40;;;22.50;47.90;;;;;;5036054;28;20884;-76
2023/08/10 00:12:40;;;;;;;1.57;1.47;;;22.50;47.90;;;;;;5042004;28;20283;-75
2023/08/10 00:15:06;;;;;;;1.77;1.67;;;22.50;47.90;;;;;;5036460;28;20519;-75
2023/08/10 00:17:33;;;;;;;1.80;1.30;;;22.50;47.90;;;;;;5042007;28;20287;-75
2023/08/10 00:19:58;;;;;;;1.50;1.40;;;22.50;47.90;;;;;;5039487;28;20990;-75
2023/08/10 00:22:24;;;;;;;1.70;1.60;;;22.50;47.90;;;;;;5039790;28;20451;-75
2023/08/10 00:24:50;;;;;;;1.60;1.50;;;22.50;47.90;;;;;;5039598;28;20694;-75
2023/08/10 00:27:15;;;;;;;1.50;1.40;;;22.50;47.90;;;;;;5039587;28;20218;-75
2023/08/10 00:29:41;;;;;;;1.87;1.40;;;22.50;47.90;;;;;;5021563;28;20221;-75
2023/08/10 00:32:06;;;;;;;1.60;1.50;;;22.50;47.90;;;;;;5036688;28;20221;-75
2023/08/10 00:34:32;;;;;;;1.50;1.40;;;22.50;47.90;;;;;;5039974;28;20643;-75
2023/08/10 00:36:57;;;;;;;1.80;1.70;;;22.50;47.90;;;;;;5039268;28;20633;-75
2023/08/10 00:39:23;;;;;;;2.00;1.37;;;22.50;47.90;;;;;;5041473;28;20755;-75
2023/08/10 00:41:49;;;;;;;1.90;1.80;;;22.50;47.90;;;;;;5021915;28;20233;-75
2023/08/10 00:44:16;;;;;;;1.60;1.50;;;22.50;47.90;;;;;;5040824;28;20719;-75
2023/08/10 00:46:42;;;;;;;1.50;1.40;;;22.50;47.90;;;;;;5039484;28;20229;-75
2023/08/10 00:49:09;;;;;;;1.40;1.30;;;22.50;47.90;;;;;;5042333;28;20541;-75
2023/08/10 00:51:34;;;;;;;1.40;1.30;;;22.50;47.90;;;;;;5038232;28;21017;-76
2023/08/10 00:54:00;;;;;;;1.40;1.30;;;22.50;47.90;;;;;;5025349;28;20451;-75
2023/08/10 00:56:26;;;;;;;1.60;1.50;;;22.50;47.90;;;;;;5039993;28;20356;-75
2023/08/10 00:58:52;;;;;;;1.40;1.30;;;22.50;47.90;;;;;;5020289;28;20233;-75
2023/08/10 01:01:18;;;;;;;1.50;1.40;;;22.50;47.90;;;;;;5038286;28;20453;-75
2023/08/10 01:03:43;;;;;;;1.77;1.50;;;22.50;47.90;;;;;;5037408;28;20685;-75
2023/08/10 01:06:48;;;;;;;1.43;1.33;;;22.50;47.90;;;;;;5033588;28;20226;-75
2023/08/10 01:09:41;;;;;;;1.60;1.50;;;22.50;47.90;;;;;;4954011;28;21755;-75
2023/08/10 01:12:13;;;;;;;1.80;1.70;;;22.50;47.90;;;;;;5042932;28;20962;-73
2023/08/10 01:15:08;;;;;;;2.20;2.10;;;22.40;47.90;;;;;;5040441;28;20989;-73
2023/08/10 01:17:39;;;;;;;1.37;1.27;;;22.50;47.90;;;;;;5020014;28;20454;-74
2023/08/10 01:20:08;;;;;;;1.40;1.30;;;22.50;48.00;;;;;;5016507;28;20562;-75
2023/08/10 01:22:55;;;;;;;1.40;1.30;;;22.50;47.90;;;;;;5024658;28;20455;-76
2023/08/10 01:25:23;;;;;;;1.40;1.30;;;22.50;47.90;;;;;;5020449;28;20459;-75
2023/08/10 01:27:49;;;;;;;1.40;1.30;;;22.40;47.80;;;;;;5042951;28;20822;-76
2023/08/10 01:30:15;;;;;;;1.60;1.50;;;22.50;47.90;;;;;;5039239;28;20876;-76
2023/08/10 01:32:40;;;;;;;1.07;1.07;;;22.40;47.90;;;;;;5040965;28;20475;-76
2023/08/10 01:35:06;;;;;;;1.47;1.37;;;22.50;48.00;;;;;;5021890;28;20628;-76
2023/08/10 01:37:33;;;;;;;1.50;1.40;;;22.40;47.90;;;;;;5024316;28;20709;-76
2023/08/10 01:39:59;;;;;;;1.93;1.83;;;22.50;48.00;;;;;;5043296;28;20689;-76
2023/08/10 01:42:26;;;;;;;1.47;1.37;;;22.50;48.00;;;;;;5022262;28;20486;-76
2023/08/10 01:44:52;;;;;;;1.60;1.50;;;22.50;47.90;;;;;;5041175;28;20557;-76
2023/08/10 01:47:26;;;;;;;1.40;1.30;;;22.40;47.90;;;;;;5040362;28;20463;-76
2023/08/10 01:49:59;;;;;;;1.43;1.33;;;22.40;47.80;;;;;;5041724;28;20299;-76
2023/08/10 01:52:28;;;;;;;1.40;1.30;;;22.50;47.90;;;;;;5041002;28;20496;-76
2023/08/10 01:54:54;;;;;;;1.50;1.40;;;22.40;47.90;;;;;;5022750;28;21001;-75
2023/08/10 01:57:20;;;;;;;1.30;1.20;;;22.40;48.00;;;;;;5041054;28;20454;-76
2023/08/10 01:59:46;;;;;;;1.70;1.60;;;22.50;47.90;;;;;;5042625;28;20275;-75
2023/08/10 02:02:11;;;;;;;1.53;1.43;;;22.40;47.90;;;;;;5041626;28;20226;-76
2023/08/10 02:04:37;;;;;;;1.33;1.23;;;22.40;47.90;;;;;;5040914;28;21020;-76
2023/08/10 02:07:03;;;;;;;1.30;1.20;;;22.50;48.00;;;;;;5040253;28;20225;-75
2023/08/10 02:09:29;;;;;;;1.33;1.23;;;22.50;48.00;;;;;;5026410;28;20700;-75
2023/08/10 02:11:54;;;;;;;1.50;1.40;;;22.50;48.00;;;;;;5040346;28;20433;-75
2023/08/10 02:14:20;;;;;;;1.70;1.60;;;22.40;47.90;;;;;;5040871;28;20708;-75
2023/08/10 02:16:45;;;;;;;1.40;1.30;;;22.40;48.00;;;;;;5039449;28;20206;-75
2023/08/10 02:19:11;;;;;;;1.37;1.10;;;22.40;47.90;;;;;;5042459;28;21446;-75
2023/08/10 02:21:37;;;;;;;1.57;1.47;;;22.40;47.90;;;;;;5037097;28;20214;-75
2023/08/10 02:24:04;;;;;;;1.17;1.10;;;22.40;48.00;;;;;;5044602;28;20713;-77
2023/08/10 02:26:29;;;;;;;1.37;1.27;;;22.40;47.90;;;;;;5036509;28;20257;-76
2023/08/10 02:28:55;;;;;;;1.40;1.30;;;22.50;48.00;;;;;;5038932;28;20490;-77
2023/08/10 02:31:24;;;;;;;1.30;1.20;;;22.40;47.90;;;;;;5039100;28;20264;-76
2023/08/10 02:33:49;;;;;;;1.50;1.40;;;22.40;47.90;;;;;;5023905;28;20249;-76
2023/08/10 02:36:15;;;;;;;1.13;1.10;;;22.40;48.00;;;;;;5038488;28;20505;-76
2023/08/10 02:38:40;;;;;;;1.30;1.20;;;22.40;47.90;;;;;;5040745;28;20269;-77
2023/08/10 02:41:06;;;;;;;1.50;1.40;;;22.40;47.90;;;;;;5038669;28;20209;-76
2023/08/10 02:43:31;;;;;;;1.47;1.37;;;22.40;48.00;;;;;;5045284;28;20253;-76
2023/08/10 02:45:57;;;;;;;1.20;1.10;;;22.40;48.00;;;;;;5037909;28;20253;-77
2023/08/10 02:48:22;;;;;;;1.47;1.37;;;22.40;48.00;;;;;;5041579;28;20226;-77
2023/08/10 02:50:48;;;;;;;1.40;1.30;;;22.40;48.00;;;;;;5041149;28;21183;-76
2023/08/10 02:53:14;;;;;;;1.40;1.30;;;22.40;48.00;;;;;;5041736;28;20214;-76
2023/08/10 02:55:39;;;;;;;1.40;1.30;;;22.50;48.10;;;;;;5040460;28;20546;-77
2023/08/10 02:58:05;;;;;;;1.43;1.33;;;22.40;48.00;;;;;;5021592;28;20860;-74
2023/08/10 03:00:30;;;;;;;1.43;1.33;;;22.40;47.90;;;;;;5039131;28;20287;-76
2023/08/10 03:02:56;;;;;;;1.37;1.27;;;22.40;48.00;;;;;;5041615;28;20236;-76
2023/08/10 03:05:22;;;;;;;1.43;1.33;;;22.40;48.00;;;;;;5040969;28;20573;-76
2023/08/10 03:07:48;;;;;;;1.20;1.10;;;22.40;48.00;;;;;;5040590;28;20687;-76
2023/08/10 03:10:14;;;;;;;1.40;1.30;;;22.40;48.00;;;;;;5039561;28;21727;-75
2023/08/10 03:12:39;;;;;;;1.47;1.33;;;22.40;48.10;;;;;;5042139;28;20441;-76
2023/08/10 03:15:09;;;;;;;2.10;2.00;;;22.40;48.00;;;;;;5045107;28;20230;-75
2023/08/10 03:17:35;;;;;;;1.50;1.40;;;22.40;48.00;;;;;;5044336;28;20691;-76
2023/08/10 03:20:00;;;;;;;1.50;1.40;;;22.40;48.00;;;;;;5022489;28;21300;-76
2023/08/10 03:22:27;;;;;;;1.23;1.13;;;22.40;48.00;;;;;;5044279;28;20482;-76
2023/08/10 03:24:53;;;;;;;1.20;1.10;;;22.40;48.00;;;;;;5029930;28;20276;-76
2023/08/10 03:27:19;;;;;;;1.40;1.30;;;22.40;48.80;;;;;;5044916;28;20966;-76
2023/08/10 03:29:44;;;;;;;1.40;1.30;;;22.40;48.00;;;;;;5021828;28;20243;-76
2023/08/10 03:32:10;;;;;;;1.77;1.67;;;22.40;48.00;;;;;;5044089;28;20293;-75
2023/08/10 03:34:36;;;;;;;1.27;1.17;;;22.40;48.00;;;;;;5027690;28;20267;-77
2023/08/10 03:37:02;;;;;;;1.30;1.20;;;22.40;48.00;;;;;;5026950;28;20222;-77
2023/08/10 03:39:27;;;;;;;1.23;1.13;;;22.40;48.00;;;;;;5045756;28;20703;-77
2023/08/10 03:41:53;;;;;;;1.20;1.10;;;22.40;48.00;;;;;;5044759;28;20224;-75
2023/08/10 03:44:18;;;;;;;1.63;1.53;;;22.40;48.00;;;;;;5045018;28;20225;-75
2023/08/10 03:46:44;;;;;;;1.50;1.40;;;22.40;48.00;;;;;;5043804;28;20272;-75
2023/08/10 03:49:09;;;;;;;1.40;1.30;;;22.40;48.00;;;;;;5019676;28;20691;-75
2023/08/10 03:51:35;;;;;;;1.63;1.53;;;22.40;48.00;;;;;;5039696;28;20237;-75
2023/08/10 03:54:00;;;;;;;1.37;1.27;;;22.40;48.00;;;;;;5031034;28;20678;-75
2023/08/10 03:56:26;;;;;;;2.27;1.40;;;22.40;48.00;;;;;;5026171;28;20636;-75
2023/08/10 03:58:52;;;;;;;1.50;1.40;;;22.40;48.00;;;;;;5045699;28;20226;-75
2023/08/10 04:01:18;;;;;;;1.40;1.30;;;22.40;48.00;;;;;;5023410;28;20214;-75
2023/08/10 04:03:43;;;;;;;1.40;1.30;;;22.40;48.00;;;;;;5026471;28;20677;-75
2023/08/10 04:06:09;;;;;;;1.30;1.20;;;22.40;48.10;;;;;;5042762;28;20230;-75
2023/08/10 04:08:34;;;;;;;1.70;1.60;;;22.40;48.00;;;;;;5044579;28;20258;-75
2023/08/10 04:11:00;;;;;;;1.10;1.10;;;22.40;48.00;;;;;;5023992;28;20261;-75
2023/08/10 04:13:26;;;;;;;1.30;1.20;;;22.40;48.20;;;;;;5044432;28;20283;-74
2023/08/10 04:15:51;;;;;;;1.30;1.20;;;22.40;48.00;;;;;;5042980;28;20681;-75
2023/08/10 04:18:17;;;;;;;1.33;1.23;;;22.40;48.10;;;;;;5045478;28;20624;-75
2023/08/10 04:20:42;;;;;;;1.40;1.30;;;22.40;48.10;;;;;;5041570;28;20673;-75
2023/08/10 04:23:08;;;;;;;1.20;1.10;;;22.40;48.00;;;;;;5022863;28;20269;-75
2023/08/10 04:25:33;;;;;;;1.17;1.07;;;22.40;48.00;;;;;;5044195;28;20593;-75
2023/08/10 04:27:59;;;;;;;1.20;1.10;;;22.40;48.00;;;;;;5044751;28;21949;-75
2023/08/10 04:30:29;;;;;;;1.20;1.10;;;22.40;48.00;;;;;;5043669;28;20303;-73
2023/08/10 04:32:55;;;;;;;1.40;1.30;;;22.40;48.00;;;;;;5039974;28;20233;-76
2023/08/10 04:35:21;;;;;;;1.27;1.17;;;22.40;48.00;;;;;;5022512;28;21048;-75
2023/08/10 04:37:48;;;;;;;1.40;1.30;;;22.40;48.00;;;;;;5013509;28;20522;-75
2023/08/10 04:40:14;;;;;;;1.30;1.20;;;22.40;48.00;;;;;;5008867;28;20840;-75
2023/08/10 04:42:40;;;;;;;1.37;1.27;;;22.40;48.00;;;;;;5018815;28;20512;-75
2023/08/10 04:45:07;;;;;;;1.33;1.20;;;22.40;48.00;;;;;;5037024;28;20222;-75
2023/08/10 04:47:32;;;;;;;1.30;1.20;;;22.40;48.00;;;;;;5035554;28;20455;-75
2023/08/10 04:49:58;;;;;;;1.30;1.20;;;22.40;48.00;;;;;;5033803;28;20459;-75
2023/08/10 04:52:23;;;;;;;1.40;1.30;;;22.40;48.00;;;;;;5035930;28;20280;-74
2023/08/10 04:54:49;;;;;;;1.20;1.10;;;22.40;48.00;;;;;;5032801;28;21222;-72
2023/08/10 04:57:15;;;;;;;1.20;1.10;;;22.40;48.00;;;;;;5034722;28;20222;-73
2023/08/10 04:59:40;;;;;;;1.37;1.27;;;22.40;48.00;;;;;;5039691;28;20221;-73
2023/08/10 05:02:06;;;;;;;1.37;1.27;;;22.40;48.00;;;;;;5033891;28;20447;-73
2023/08/10 05:04:31;;;;;;;1.30;1.20;;;22.40;47.90;;;;;;5039551;28;20222;-72
2023/08/10 05:06:57;;;;;;;1.50;1.20;;;22.40;47.80;;;;;;5036914;28;20569;-71
2023/08/10 05:09:23;;;;;;;1.47;1.37;;;22.40;47.90;;;;;;5020909;28;20237;-73
2023/08/10 05:11:48;;;;;;;1.30;1.20;;;22.50;48.00;;;;;;5035141;28;20305;-74
2023/08/10 05:14:14;;;;;;;1.20;1.10;;;22.40;47.80;;;;;;5036563;28;20459;-74
2023/08/10 05:16:40;;;;;;;1.47;1.37;;;22.40;47.80;;;;;;5031323;28;20218;-73
2023/08/10 05:19:05;;;;;;;1.30;1.20;;;22.50;47.90;;;;;;5033704;28;20234;-73
2023/08/10 05:21:31;;;;;;;1.20;1.10;;;22.50;47.90;;;;;;5035202;28;20234;-73
2023/08/10 05:23:56;;;;;;;3.23;1.27;;;22.40;47.80;;;;;;5038094;28;20253;-73
2023/08/10 05:26:22;;;;;;;1.40;1.30;;;22.50;47.90;;;;;;5033619;28;20230;-74
2023/08/10 05:28:47;;;;;;;2.97;2.07;;;22.50;47.80;;;;;;5037608;28;20226;-73
2023/08/10 05:31:13;;;;;;;3.53;1.17;;;22.50;47.80;;;;;;5039154;28;20222;-74
2023/08/10 05:33:39;;;;;;;1.37;1.20;;;22.50;47.80;;;;;;5042167;28;20229;-74
2023/08/10 05:36:07;;;;;;;1.37;1.27;;;22.50;47.70;;;;;;5042865;28;20336;-74
2023/08/10 05:38:32;;;;;;;1.20;1.10;;;22.50;47.60;;;;;;5019946;28;20974;-74
2023/08/10 05:40:58;;;;;;;1.30;1.20;;;22.50;47.50;;;;;;5036116;28;20501;-74
2023/08/10 05:43:23;;;;;;;1.90;1.30;;;22.50;47.50;;;;;;5025013;28;20245;-74
2023/08/10 05:45:49;;;;;;;1.57;1.27;;;22.50;47.50;;;;;;5039125;28;20225;-74
2023/08/10 05:48:15;;;;;;;2.47;1.30;;;22.50;47.40;;;;;;5024390;28;20237;-74
2023/08/10 05:50:41;;;;;;;2.03;1.60;;;22.50;47.50;;;;;;5041058;28;20222;-75
2023/08/10 05:53:07;;;;;;;1.30;1.20;;;22.50;47.50;;;;;;5036159;28;20238;-74
2023/08/10 05:55:34;;;;;;;1.40;1.30;;;22.50;47.40;;;;;;5031889;28;21145;-73
2023/08/10 05:58:00;;;;;;;1.87;1.10;;;22.50;47.40;;;;;;5029551;28;20481;-72
2023/08/10 06:00:27;;;;;;;4.80;1.50;;;22.50;47.40;;;;;;5009150;28;20459;-73
2023/08/10 06:02:53;;;;;;;2.23;1.40;;;22.50;47.30;;;;;;5036252;28;20842;-72
2023/08/10 06:05:18;;;;;;;1.20;1.10;;;22.50;47.30;;;;;;5032027;28;20974;-73
2023/08/10 06:07:47;;;;;;;1.20;1.10;;;22.50;47.30;;;;;;5038765;28;20463;-73
2023/08/10 06:10:14;;;;;;;1.40;1.30;;;22.50;47.30;;;;;;5038941;28;20233;-73
2023/08/10 06:12:41;;;;;;;1.27;1.17;;;22.50;47.30;;;;;;5038394;28;20473;-72
2023/08/10 06:15:09;;;;;;;1.27;1.17;;;22.50;47.30;;;;;;5022672;28;20456;-73
2023/08/10 06:17:35;;;;;;;1.60;1.50;;;22.50;47.20;;;;;;5038263;28;20601;-73
2023/08/10 06:20:08;;;;;;;2.13;1.30;;;22.50;47.20;;;;;;5031369;28;20466;-73
2023/08/10 06:22:33;;;;;;;1.40;1.30;;;22.50;47.30;;;;;;5018324;28;20463;-73
2023/08/10 06:24:59;;;;;;;1.50;1.20;;;22.50;47.20;;;;;;5030562;28;20493;-73
2023/08/10 06:27:26;;;;;;;1.60;1.50;;;22.50;47.20;;;;;;5030942;28;20292;-73
2023/08/10 06:29:52;;;;;;;1.30;1.20;;;22.50;47.20;;;;;;5033975;28;20638;-73
2023/08/10 06:32:18;;;;;;;1.30;1.20;;;22.50;47.20;;;;;;5029811;28;20966;-73
2023/08/10 06:34:44;;;;;;;1.33;1.23;;;22.50;47.10;;;;;;5034179;28;20312;-73
2023/08/10 06:37:10;;;;;;;1.37;1.27;;;22.50;47.10;;;;;;5032999;28;20218;-73
2023/08/10 06:39:35;;;;;;;1.43;1.20;;;22.50;47.10;;;;;;5034104;28;20234;-73
2023/08/10 06:42:02;;;;;;;1.23;1.13;;;22.50;47.30;;;;;;5036019;28;20454;-73
2023/08/10 06:44:29;;;;;;;1.30;1.17;;;22.50;47.10;;;;;;5034491;28;20822;-73
2023/08/10 06:46:54;;;;;;;1.23;1.13;;;22.50;47.20;;;;;;5035402;28;20571;-73
2023/08/10 06:49:21;;;;;;;1.13;1.03;;;22.50;47.20;;;;;;5032424;28;20459;-73
2023/08/10 06:51:48;;;;;;;1.50;1.40;;;22.50;47.00;;;;;;5023746;28;20225;-74
2023/08/10 06:54:13;;;;;;;1.50;1.40;;;22.50;47.10;;;;;;5027927;28;20976;-74
2023/08/10 06:56:39;;;;;;;1.40;1.30;;;22.50;47.10;;;;;;5037422;28;20545;-74
2023/08/10 06:59:04;;;;;;;1.30;1.20;;;22.50;47.10;;;;;;5041288;28;20233;-74
2023/08/10 07:01:30;;;;;;;1.60;1.30;;;22.50;47.10;;;;;;5016512;28;20352;-74
2023/08/10 07:03:56;;;;;;;3.73;1.27;;;22.50;47.00;;;;;;5043099;28;20590;-74
2023/08/10 07:06:21;;;;;;;1.10;1.00;;;22.50;47.10;;;;;;5033584;28;20465;-74
2023/08/10 07:08:48;;;;;;;1.10;1.00;;;22.50;47.00;;;;;;5037126;28;20701;-74
2023/08/10 07:11:14;;;;;;;1.30;1.20;;;22.50;47.10;;;;;;5019610;28;20229;-74
2023/08/10 07:13:41;;;;;;;1.43;1.33;;;22.50;47.10;;;;;;5036549;28;20513;-74
2023/08/10 07:16:06;;;;;;;3.10;1.30;;;22.50;47.00;;;;;;5033640;28;20288;-74
2023/08/10 07:18:32;;;;;;;1.40;1.27;;;22.50;47.00;;;;;;5021875;28;20954;-75
2023/08/10 07:20:58;;;;;;;1.20;1.10;;;22.50;46.90;;;;;;5038242;28;20283;-75
2023/08/10 07:23:23;;;;;;;1.23;1.13;;;22.50;46.90;;;;;;5035592;28;20467;-75
2023/08/10 07:25:53;;;;;;;1.30;1.20;;;22.60;47.00;;;;;;5017590;28;20465;-75
2023/08/10 07:28:21;;;;;;;1.50;1.40;;;22.50;46.90;;;;;;5042553;28;20221;-75
2023/08/10 07:30:47;;;;;;;1.30;1.20;;;22.50;46.90;;;;;;5020188;28;20491;-75
2023/08/10 07:33:13;;;;;;;2.20;1.40;;;22.60;47.00;;;;;;5037638;28;20461;-74
2023/08/10 07:35:38;;;;;;;1.40;1.23;;;22.60;47.00;;;;;;5031057;28;20463;-74
2023/08/10 07:38:04;;;;;;;1.20;1.10;;;22.50;46.90;;;;;;5039088;28;20368;-74
2023/08/10 07:40:30;;;;;;;1.30;1.20;;;22.60;47.00;;;;;;5037887;28;20229;-74
2023/08/10 07:42:55;;;;;;;1.60;1.50;;;22.50;46.90;;;;;;5033444;28;20684;-75
2023/08/10 07:45:21;;;;;;;1.07;0.97;;;22.50;46.90;;;;;;5032555;28;20286;-75
2023/08/10 07:47:46;;;;;;;1.20;1.10;;;22.60;47.00;;;;;;5039757;28;20359;-75
2023/08/10 07:50:12;;;;;;;1.20;1.10;;;22.50;46.90;;;;;;5036056;28;21394;-75
2023/08/10 07:52:38;;;;;;;1.93;1.30;;;22.50;46.90;;;;;;5039215;28;20218;-75
2023/08/10 07:55:04;;;;;;;1.20;1.10;;;22.60;47.00;;;;;;5023743;28;20214;-75
2023/08/10 07:57:30;;;;;;;1.23;1.13;;;22.50;46.90;;;;;;5037818;28;20268;-75
2023/08/10 07:59:56;;;;;;;1.30;1.20;;;22.60;47.00;;;;;;5030279;28;20232;-75
2023/08/10 08:02:22;;;;;;;1.77;1.10;;;22.60;47.20;;;;;;5035906;28;20581;-75
2023/08/10 08:04:47;;;;;;;1.10;0.90;;;22.50;46.90;;;;;;5037042;28;20454;-75
2023/08/10 08:07:13;;;;;;;1.40;1.30;;;22.60;47.00;;;;;;5035264;28;20214;-75
2023/08/10 08:09:38;;;;;;;1.27;1.17;;;22.50;46.90;;;;;;5016265;28;20213;-75
2023/08/10 08:12:04;;;;;;;1.30;1.20;;;22.60;47.00;;;;;;5032915;28;20219;-76
2023/08/10 08:14:30;;;;;;;1.10;1.00;;;22.50;46.90;;;;;;5036332;28;20217;-76
2023/08/10 08:16:55;;;;;;;1.03;0.93;;;22.50;46.90;;;;;;5033399;28;20241;-75
2023/08/10 08:19:21;;;;;;;1.07;1.00;;;22.50;46.90;;;;;;5030062;28;20242;-75
2023/08/10 08:21:48;;;;;;;1.23;1.13;;;22.50;46.90;;;;;;5029835;28;20267;-75
2023/08/10 08:24:14;;;;;;;1.20;1.10;;;22.50;46.90;;;;;;5030988;28;20245;-76
2023/08/10 08:26:40;;;;;;;1.57;0.93;;;22.50;46.90;;;;;;5029371;28;20467;-76
2023/08/10 08:29:06;;;;;;;1.10;1.00;;;22.50;46.90;;;;;;5031287;28;20490;-76
2023/08/10 08:31:33;;;;;;;1.10;1.00;;;22.50;46.90;;;;;;5028957;28;20792;-76
2023/08/10 08:33:58;;;;;;;1.30;1.20;;;22.60;47.00;;;;;;5032522;28;20257;-76
2023/08/10 08:36:24;;;;;;;2.10;1.33;;;22.50;46.90;;;;;;5031398;28;21171;-76
2023/08/10 08:38:50;;;;;;;1.20;1.10;;;22.50;46.90;;;;;;5031399;28;20249;-76
2023/08/10 08:41:18;;;;;;;0.90;0.90;;;22.50;46.90;;;;;;5032959;28;20226;-75
2023/08/10 08:43:45;;;;;;;1.20;1.10;;;22.50;46.90;;;;;;5018094;28;20223;-79
2023/08/10 08:46:12;;;;;;;1.20;1.10;;;22.50;46.90;;;;;;5017611;28;20459;-76
2023/08/10 08:48:38;;;;;;;1.20;1.10;;;22.50;46.90;;;;;;5028262;28;20481;-76
2023/08/10 08:51:05;;;;;;;1.20;1.10;;;22.50;46.90;;;;;;5030417;28;20463;-75
2023/08/10 08:53:32;;;;;;;1.30;1.20;;;22.60;47.00;;;;;;5030746;28;20590;-77
2023/08/10 08:55:58;;;;;;;1.20;1.10;;;22.50;46.90;;;;;;5032046;28;20486;-76
2023/08/10 08:58:24;;;;;;;1.10;1.00;;;22.50;46.90;;;;;;5029615;28;20820;-75
2023/08/10 09:00:53;;;;;;;1.00;0.80;;;22.50;46.90;;;;;;5033377;28;20229;-76
2023/08/10 09:03:23;;;;;;;1.20;1.10;;;22.60;47.00;;;;;;5032007;28;20236;-75
2023/08/10 09:05:49;;;;;;;1.30;1.20;;;22.50;46.90;;;;;;5026554;28;20472;-75
2023/08/10 09:08:15;;;;;;;3.53;1.07;;;22.50;46.90;;;;;;5031100;28;20465;-76
2023/08/10 09:10:43;;;;;;;1.40;1.30;;;22.60;47.00;;;;;;5027442;28;20625;-75
2023/08/10 09:13:21;;;;;;;1.17;1.10;;;22.50;46.90;;;;;;5026631;28;20920;-76
2023/08/10 09:16:03;;;;;;;1.03;1.00;;;22.60;47.00;;;;;;5016669;28;20502;-76
2023/08/10 09:18:33;;;;;;;1.37;1.10;;;22.50;46.90;;;;;;5036731;28;20534;-78
2023/08/10 09:21:15;;;;;;;1.20;1.10;;;22.60;47.00;;;;;;5024370;28;20505;-75
2023/08/10 09:23:42;;;;;;;1.17;1.03;;;22.50;46.90;;;;;;5028311;28;20545;-75
2023/08/10 09:26:09;;;;;;;1.20;1.10;;;22.50;46.90;;;;;;5029458;28;20456;-75
2023/08/10 09:28:39;;;;;;;1.17;1.07;;;22.50;46.90;;;;;;5032378;28;20574;-75
2023/08/10 09:31:09;;;;;;;1.30;1.10;;;22.50;46.90;;;;;;5023908;28;20474;-76
2023/08/10 09:33:36;;;;;;;1.13;1.03;;;22.60;47.00;;;;;;5026964;28;21003;-76
2023/08/10 09:36:04;;;;;;;1.40;1.30;;;22.60;47.10;;;;;;5025647;28;20467;-76
2023/08/10 09:38:29;;;;;;;1.17;1.07;;;22.60;47.00;;;;;;5028592;28;20483;-75
2023/08/10 09:41:08;;;;;;;1.30;1.10;;;22.60;47.00;;;;;;5008540;28;20554;-76
2023/08/10 09:43:36;;;;;;;1.20;1.10;;;22.60;47.00;;;;;;5034464;28;20222;-76
2023/08/10 09:46:05;;;;;;;1.33;1.10;;;22.60;47.10;;;;;;5028806;28;20450;-77
2023/08/10 09:48:41;;;;;;;1.20;1.10;;;22.60;47.10;;;;;;5032534;28;20467;-76
2023/08/10 09:51:09;;;;;;;1.20;1.10;;;22.60;47.10;;;;;;5028692;28;20518;-76
2023/08/10 09:53:36;;;;;;;1.10;1.00;;;22.60;47.10;;;;;;5029147;28;20472;-76
2023/08/10 09:56:03;;;;;;;1.00;1.00;;;22.60;47.20;;;;;;5027323;28;20882;-76
2023/08/10 09:58:28;;;;;;;1.17;1.07;;;22.60;47.20;;;;;;5031461;28;20493;-76
2023/08/10 10:00:55;;;;;;;1.50;1.30;;;22.60;47.20;;;;;;5023976;28;20485;-76
2023/08/10 10:03:22;;;;;;;1.20;1.10;;;22.60;47.20;;;;;;5032038;28;20462;-77
2023/08/10 10:05:49;;;;;;;1.73;1.10;;;22.60;47.20;;;;;;5025371;28;20565;-77
2023/08/10 10:08:16;;;;;;;1.20;1.10;;;22.60;47.30;;;;;;5032598;28;20976;-77
2023/08/10 10:10:43;;;;;;;1.50;1.07;;;22.60;47.30;;;;;;5021908;28;21260;-75
2023/08/10 10:13:12;;;;;;;1.07;0.97;;;22.60;47.20;;;;;;5030481;28;20475;-76
2023/08/10 10:15:40;;;;;;;1.23;1.13;;;22.60;47.30;;;;;;5011933;28;20456;-75
2023/08/10 10:18:06;;;;;;;1.20;1.10;;;22.60;47.30;;;;;;5028897;28;22014;-77
2023/08/10 10:20:34;;;;;;;1.50;1.30;;;22.60;47.40;;;;;;5013539;28;20491;-76
2023/08/10 10:23:01;;;;;;;1.10;1.00;;;22.60;47.40;;;;;;5029256;28;21030;-76
2023/08/10 10:25:26;;;;;;;1.13;1.00;;;22.60;47.30;;;;;;5007458;28;20970;-75
2023/08/10 10:27:52;;;;;;;1.40;1.30;;;22.60;47.30;;;;;;5029336;28;20542;-76
2023/08/10 10:30:21;;;;;;;1.03;0.93;;;22.60;47.30;;;;;;5014544;28;20301;-76
2023/08/10 10:32:49;;;;;;;1.20;1.10;;;22.60;47.30;;;;;;5025487;28;20222;-74
2023/08/10 10:35:20;;;;;;;1.30;1.20;;;22.60;47.40;;;;;;5020663;28;20463;-74
2023/08/10 10:37:55;;;;;;;1.20;1.10;;;22.60;47.30;;;;;;5015423;28;20447;-73
2023/08/10 10:40:23;;;;;;;1.30;1.20;;;22.60;47.30;;;;;;5009879;28;20529;-74
2023/08/10 10:43:04;;;;;;;1.03;1.00;;;22.60;47.30;;;;;;5021361;28;20466;-74
2023/08/10 10:45:39;;;;;;;1.20;1.10;;;22.60;47.20;;;;;;5019077;28;20467;-74
2023/08/10 10:48:05;;;;;;;1.23;1.13;;;22.60;47.30;;;;;;5020614;28;22172;-74
2023/08/10 10:50:32;;;;;;;1.30;1.20;;;22.60;47.30;;;;;;5022166;28;20542;-74
2023/08/10 10:53:06;;;;;;;1.20;1.10;;;22.60;47.30;;;;;;5000793;28;20455;-74
2023/08/10 10:55:34;;;;;;;1.17;1.07;;;22.60;47.20;;;;;;5024955;28;20783;-74
2023/08/10 10:58:02;;;;;;;1.03;1.00;;;22.60;47.30;;;;;;5028414;28;20460;-74
2023/08/10 11:00:28;;;;;;;0.97;0.90;;;22.60;47.30;;;;;;5023596;28;20496;-74
2023/08/10 11:02:54;;;;;;;1.17;1.07;;;22.60;47.40;;;;;;5003403;28;20467;-75
2023/08/10 11:05:20;;;;;;;1.20;1.10;;;22.60;47.30;;;;;;5022517;28;20229;-74
2023/08/10 11:07:50;;;;;;;0.90;0.90;;;22.60;47.40;;;;;;5029875;28;20478;-74
2023/08/10 11:10:17;;;;;;;1.23;1.13;;;22.60;47.50;;;;;;5025479;28;20485;-75
2023/08/10 11:12:44;;;;;;;1.07;1.00;;;22.60;47.50;;;;;;5030448;28;21202;-74
2023/08/10 11:15:15;;;;;;;1.17;1.07;;;22.60;47.50;;;;;;5024873;28;21195;-75
2023/08/10 11:17:42;;;;;;;1.37;1.27;;;22.60;47.50;;;;;;5029016;28;20536;-74
2023/08/10 11:20:12;;;;;;;1.67;1.10;;;22.60;47.60;;;;;;5023965;28;20554;-75
2023/08/10 11:22:39;;;;;;;1.30;1.20;;;22.60;47.50;;;;;;5021948;28;20462;-74
2023/08/10 11:25:25;;;;;;;1.03;1.00;;;22.60;47.60;;;;;;5010050;28;21845;-74
2023/08/10 11:27:52;;;;;;;1.30;1.20;;;22.60;47.60;;;;;;5026531;28;20482;-74
2023/08/10 11:30:20;;;;;;;1.30;1.20;;;22.60;47.60;;;;;;5027737;28;20451;-75
2023/08/10 11:32:47;;;;;;;1.20;1.10;;;22.60;47.60;;;;;;5029630;28;20455;-74
2023/08/10 11:35:16;;;;;;;1.20;1.10;;;22.60;47.60;;;;;;5031462;28;20459;-75
2023/08/10 11:37:42;;;;;;;1.33;1.00;;;22.60;47.60;;;;;;5035637;28;20444;-74
2023/08/10 11:40:12;;;;;;;1.10;1.00;;;22.60;47.60;;;;;;5038332;28;20451;-74
2023/08/10 11:42:42;;;;;;;1.20;1.10;;;22.60;47.60;;;;;;5035558;28;20325;-74
2023/08/10 11:45:16;;;;;;;1.20;1.10;;;22.60;47.60;;;;;;5030738;28;20954;-75
2023/08/10 11:47:43;;;;;;;1.17;1.03;;;22.60;47.60;;;;;;5032349;28;20520;-75
2023/08/10 11:50:11;;;;;;;1.20;1.10;;;22.60;47.50;;;;;;5027876;28;20586;-74
2023/08/10 11:52:39;;;;;;;1.33;1.23;;;22.60;47.60;;;;;;5029544;28;21082;-74
2023/08/10 11:55:13;;;;;;;1.30;1.20;;;22.60;47.50;;;;;;5032652;28;20466;-74
2023/08/10 11:57:44;;;;;;;1.20;1.10;;;22.60;47.60;;;;;;5032033;28;20455;-74
2023/08/10 12:00:22;;;;;;;1.17;1.07;;;22.60;47.60;;;;;;5017477;28;20476;-74
2023/08/10 12:03:13;;;;;;;1.20;1.10;;;22.60;47.60;;;;;;5028553;28;20456;-74
2023/08/10 12:06:05;;;;;;;1.37;1.27;;;22.60;47.60;;;;;;5029730;28;20529;-73
2023/08/10 12:08:34;;;;;;;2.07;1.30;;;22.60;47.60;;;;;;5027741;28;20450;-73
2023/08/10 12:11:04;;;;;;;8.23;1.90;;;22.60;47.60;;;;;;5030353;28;20446;-74
2023/08/10 12:13:30;;;;;;;0.90;0.90;;;22.60;47.60;;;;;;5030784;28;20990;-74
2023/08/10 12:15:57;;;;;;;1.20;1.10;;;22.60;47.60;;;;;;5034739;28;20459;-74
2023/08/10 12:18:24;;;;;;;1.10;1.00;;;22.60;47.60;;;;;;5032597;28;20685;-74
2023/08/10 12:20:51;;;;;;;1.20;1.10;;;22.60;47.70;;;;;;5031210;28;20471;-74
2023/08/10 12:23:17;;;;;;;1.30;1.20;;;22.60;47.70;;;;;;5032454;28;20463;-74
2023/08/10 12:25:44;;;;;;;1.10;1.00;;;22.60;47.70;;;;;;5031058;28;22112;-74
2023/08/10 12:28:11;;;;;;;1.17;1.07;;;22.60;47.70;;;;;;5012472;28;20454;-74
2023/08/10 12:30:38;;;;;;;1.27;1.17;;;22.60;47.70;;;;;;5030883;28;20577;-73
2023/08/10 12:33:04;;;;;;;1.30;1.20;;;22.70;47.80;;;;;;5031695;28;20447;-73
2023/08/10 12:35:30;;;;;;;1.30;1.20;;;22.60;47.70;;;;;;5022318;28;20482;-71
2023/08/10 12:37:56;;;;;;;1.23;1.13;;;22.70;47.70;;;;;;5030000;28;20456;-72
2023/08/10 12:40:22;;;;;;;1.50;1.40;;;22.70;47.80;;;;;;5029784;28;21088;-73
2023/08/10 12:42:48;;;;;;;1.40;1.30;;;22.70;47.80;;;;;;5029741;28;20226;-73
2023/08/10 12:45:14;;;;;;;1.13;1.03;;;22.70;47.80;;;;;;5033958;28;20226;-73
2023/08/10 12:47:42;;;;;;;1.30;1.20;;;22.60;47.80;;;;;;5031141;28;20467;-73